Time;durP1;ratioP1;P1;durP2;ratioP2;P2;SDS_P1;SDS_P2;PMS_P1;PMS_P2;Temp;Humidity;BMP_temperature;BMP_pressure;BME280_temperature;BME280_humidity;BME280_pressure;Samples;Min_cycle;Max_cycle;Signal;HPM_P1;HPM_P2
2023/05/07 00:01:48;;;;;;;454.87;429.93;;;14.60;18.80;;;;;;4998631;28;20177;-70
2023/05/07 00:04:14;;;;;;;424.90;401.97;;;14.50;20.40;;;;;;5000368;28;20646;-70
2023/05/07 00:06:39;;;;;;;437.37;412.43;;;14.30;21.30;;;;;;5014734;28;20266;-69
2023/05/07 00:09:05;;;;;;;449.10;425.30;;;14.30;22.00;;;;;;4998177;28;20211;-69
2023/05/07 00:11:31;;;;;;;268.97;251.83;;;14.30;22.20;;;;;;4996596;28;20202;-69
2023/05/07 00:13:56;;;;;;;399.73;377.07;;;14.20;23.80;;;;;;4996607;28;20451;-69
2023/05/07 00:16:22;;;;;;;375.57;355.13;;;14.20;23.60;;;;;;4996864;28;20210;-69
2023/05/07 00:18:48;;;;;;;270.60;253.93;;;14.10;24.00;;;;;;4997047;28;20258;-70
2023/05/07 00:21:14;;;;;;;159.17;147.10;;;14.10;24.50;;;;;;4997685;28;20184;-68
2023/05/07 00:23:39;;;;;;;384.20;363.70;;;14.10;24.80;;;;;;4998100;28;20416;-68
2023/05/07 00:26:05;;;;;;;258.40;242.20;;;14.10;24.40;;;;;;4998568;28;20416;-69
2023/05/07 00:28:31;;;;;;;221.53;206.23;;;14.00;24.90;;;;;;5013573;28;20225;-68
2023/05/07 00:30:56;;;;;;;385.23;365.63;;;13.90;25.30;;;;;;4999154;28;20187;-68
2023/05/07 00:33:22;;;;;;;178.80;165.50;;;13.90;25.60;;;;;;4998417;28;20740;-69
2023/05/07 00:35:50;;;;;;;302.77;284.90;;;13.80;26.40;;;;;;4997925;28;20168;-68
2023/05/07 00:38:16;;;;;;;290.57;271.77;;;13.70;26.50;;;;;;4997055;28;20222;-68
2023/05/07 00:40:41;;;;;;;203.97;189.83;;;13.70;26.70;;;;;;4999914;28;20445;-68
2023/05/07 00:43:07;;;;;;;319.33;301.30;;;13.70;26.50;;;;;;4998453;28;20202;-69
2023/05/07 00:45:33;;;;;;;325.23;305.23;;;13.60;25.10;;;;;;4999844;28;20173;-69
2023/05/07 00:48:01;;;;;;;241.50;226.27;;;13.70;25.10;;;;;;5001198;28;20203;-69
2023/05/07 00:50:30;;;;;;;363.73;344.90;;;13.70;25.10;;;;;;5000151;28;20514;-69
2023/05/07 00:52:56;;;;;;;363.80;344.57;;;13.70;24.80;;;;;;4999162;28;20831;-69
2023/05/07 00:55:23;;;;;;;166.97;154.07;;;13.80;25.20;;;;;;5000734;28;20420;-69
2023/05/07 00:57:50;;;;;;;209.77;195.43;;;13.80;25.00;;;;;;5000146;28;20470;-68
2023/05/07 01:00:16;;;;;;;142.30;130.20;;;13.80;24.80;;;;;;4998779;28;20426;-69
2023/05/07 01:02:42;;;;;;;320.30;302.63;;;13.80;25.20;;;;;;4999780;28;20414;-69
2023/05/07 01:05:15;;;;;;;340.10;321.13;;;13.80;24.60;;;;;;4999655;28;20403;-69
2023/05/07 01:07:42;;;;;;;249.80;234.07;;;13.70;25.10;;;;;;5000024;28;20260;-68
2023/05/07 01:10:08;;;;;;;332.67;314.70;;;13.70;26.30;;;;;;4999058;28;20410;-69
2023/05/07 01:12:37;;;;;;;331.77;314.47;;;13.70;25.90;;;;;;4998960;28;20432;-69
2023/05/07 01:15:04;;;;;;;315.87;298.37;;;13.60;25.90;;;;;;4999661;28;20426;-68
2023/05/07 01:17:37;;;;;;;276.13;259.47;;;13.60;26.70;;;;;;5014745;28;20468;-69
2023/05/07 01:20:05;;;;;;;170.43;157.67;;;13.60;26.60;;;;;;4999934;28;20412;-69
2023/05/07 01:22:36;;;;;;;387.93;363.37;;;13.60;27.40;;;;;;5002691;28;20467;-70
2023/05/07 01:25:03;;;;;;;367.87;345.37;;;13.50;27.00;;;;;;5003517;28;20407;-69
2023/05/07 01:27:28;;;;;;;295.13;276.80;;;13.50;28.10;;;;;;5004808;28;20470;-70
2023/05/07 01:29:55;;;;;;;316.33;298.47;;;13.50;28.50;;;;;;5004514;28;20451;-70
2023/05/07 01:32:30;;;;;;;155.40;142.83;;;13.40;28.70;;;;;;5003663;28;20172;-70
2023/05/07 01:34:58;;;;;;;282.13;264.30;;;13.30;29.00;;;;;;5001993;28;20793;-69
2023/05/07 01:37:25;;;;;;;305.17;288.27;;;13.20;29.50;;;;;;5002333;28;20495;-69
2023/05/07 01:39:52;;;;;;;357.57;336.47;;;13.20;28.90;;;;;;5002993;28;20436;-70
2023/05/07 01:42:21;;;;;;;347.70;326.47;;;13.10;28.90;;;;;;5004426;28;20413;-69
2023/05/07 01:44:47;;;;;;;287.23;270.40;;;13.10;29.50;;;;;;5019219;28;20522;-73
2023/05/07 01:47:14;;;;;;;341.00;321.10;;;13.10;30.70;;;;;;5000992;28;20453;-70
2023/05/07 01:49:40;;;;;;;244.73;228.93;;;13.00;31.30;;;;;;5003474;28;20830;-71
2023/05/07 01:52:06;;;;;;;202.23;189.07;;;13.00;30.30;;;;;;5002570;28;20924;-70
2023/05/07 01:54:32;;;;;;;278.17;262.13;;;13.10;29.90;;;;;;5002384;28;20423;-69
2023/05/07 01:56:57;;;;;;;227.20;212.47;;;13.10;30.80;;;;;;5001662;28;20461;-70
2023/05/07 01:59:23;;;;;;;286.23;269.63;;;13.10;31.20;;;;;;4999979;28;20201;-69
2023/05/07 02:01:49;;;;;;;272.43;256.30;;;13.10;30.50;;;;;;5002199;28;20216;-70
2023/05/07 02:04:14;;;;;;;319.53;301.33;;;13.00;30.80;;;;;;5002517;28;20192;-70
2023/05/07 02:06:40;;;;;;;364.43;342.57;;;13.00;32.70;;;;;;5001772;28;20666;-70
2023/05/07 02:09:05;;;;;;;317.07;299.43;;;12.90;31.90;;;;;;5002841;28;20204;-69
2023/05/07 02:11:31;;;;;;;294.03;276.67;;;12.90;33.50;;;;;;5002386;28;20182;-70
2023/05/07 02:13:57;;;;;;;300.90;283.73;;;12.80;34.40;;;;;;5003797;28;20196;-70
2023/05/07 02:16:23;;;;;;;416.20;393.17;;;12.70;34.00;;;;;;5003654;28;20206;-69
2023/05/07 02:18:49;;;;;;;274.37;258.10;;;12.70;35.70;;;;;;5003288;28;20662;-70
2023/05/07 02:21:15;;;;;;;413.47;389.83;;;12.70;37.80;;;;;;5002816;28;20419;-70
2023/05/07 02:23:40;;;;;;;272.63;256.93;;;12.60;37.60;;;;;;5016844;28;20421;-70
2023/05/07 02:26:06;;;;;;;374.53;353.33;;;12.60;38.50;;;;;;5001259;28;20204;-70
2023/05/07 02:28:32;;;;;;;277.80;261.30;;;12.60;38.70;;;;;;5001093;28;20299;-69
2023/05/07 02:30:59;;;;;;;417.00;393.80;;;12.60;39.80;;;;;;5018841;28;20177;-70
2023/05/07 02:33:25;;;;;;;297.03;279.37;;;12.50;40.30;;;;;;5003827;28;20180;-70
2023/05/07 02:35:51;;;;;;;331.13;312.13;;;12.50;41.30;;;;;;5003614;28;20554;-69
2023/05/07 02:38:17;;;;;;;344.00;324.17;;;12.50;41.00;;;;;;5017203;28;20210;-69
2023/05/07 02:40:43;;;;;;;335.53;316.43;;;12.40;40.70;;;;;;5002795;28;20428;-69
2023/05/07 02:43:09;;;;;;;325.43;308.17;;;12.40;42.80;;;;;;5003078;28;20420;-70
2023/05/07 02:45:35;;;;;;;311.80;293.73;;;12.40;41.30;;;;;;5002018;28;20554;-69
2023/05/07 02:48:01;;;;;;;307.80;289.73;;;12.40;41.50;;;;;;5002643;28;20251;-70
2023/05/07 02:50:27;;;;;;;290.80;273.43;;;12.30;41.00;;;;;;5004949;28;20422;-70
2023/05/07 02:52:52;;;;;;;301.90;284.10;;;12.20;42.50;;;;;;5003332;28;20652;-71
2023/05/07 02:55:18;;;;;;;377.90;356.73;;;12.20;42.00;;;;;;5004190;28;20190;-70
2023/05/07 02:57:44;;;;;;;338.17;318.73;;;12.10;41.60;;;;;;5020205;28;20216;-69
2023/05/07 03:00:14;;;;;;;304.27;287.03;;;12.10;43.60;;;;;;5003097;28;20727;-70
2023/05/07 03:02:40;;;;;;;346.37;325.23;;;12.10;43.20;;;;;;5018844;28;20267;-70
2023/05/07 03:05:06;;;;;;;327.23;308.90;;;12.00;43.10;;;;;;5003139;28;20424;-70
2023/05/07 03:07:31;;;;;;;262.47;245.77;;;11.90;44.90;;;;;;5003733;28;20191;-69
2023/05/07 03:09:57;;;;;;;275.57;258.33;;;12.00;44.70;;;;;;5002635;28;20260;-70
2023/05/07 03:12:22;;;;;;;331.73;311.87;;;11.90;45.30;;;;;;5001409;28;20198;-69
2023/05/07 03:14:48;;;;;;;274.03;258.03;;;11.90;44.90;;;;;;5001938;28;20182;-70
2023/05/07 03:17:14;;;;;;;348.17;327.97;;;11.90;46.40;;;;;;5016381;28;20208;-70
2023/05/07 03:19:39;;;;;;;387.67;364.07;;;11.80;45.30;;;;;;5000894;28;20363;-70
2023/05/07 03:22:05;;;;;;;334.47;315.37;;;11.70;45.60;;;;;;5002876;28;20230;-69
2023/05/07 03:24:30;;;;;;;274.33;257.90;;;11.70;46.20;;;;;;5001070;28;20197;-70
2023/05/07 03:26:57;;;;;;;300.73;282.73;;;11.70;46.10;;;;;;5000273;28;20189;-70
2023/05/07 03:29:23;;;;;;;365.50;344.33;;;11.70;46.10;;;;;;5001579;28;20219;-71
2023/05/07 03:31:48;;;;;;;367.80;346.67;;;11.60;45.80;;;;;;5002300;28;20781;-69
2023/05/07 03:34:14;;;;;;;355.37;334.90;;;11.70;44.40;;;;;;5000067;28;20415;-69
2023/05/07 03:36:40;;;;;;;273.23;256.60;;;11.70;46.50;;;;;;5001653;28;20207;-70
2023/05/07 03:39:05;;;;;;;319.80;300.63;;;11.70;46.70;;;;;;5000948;28;20448;-70
2023/05/07 03:41:32;;;;;;;281.77;264.90;;;11.60;46.00;;;;;;5000132;28;20203;-70
2023/05/07 03:43:58;;;;;;;343.80;325.37;;;11.60;46.80;;;;;;5016161;28;20272;-70
2023/05/07 03:46:25;;;;;;;387.00;365.53;;;11.60;46.20;;;;;;5001590;28;20458;-70
2023/05/07 03:48:51;;;;;;;314.27;296.40;;;11.50;46.00;;;;;;5001295;28;20204;-70
2023/05/07 03:51:17;;;;;;;344.53;325.43;;;11.40;46.80;;;;;;5000823;28;20415;-69
2023/05/07 03:53:42;;;;;;;370.03;350.43;;;11.40;47.60;;;;;;5016162;28;20188;-70
2023/05/07 03:56:08;;;;;;;271.83;255.67;;;11.40;47.70;;;;;;5015754;28;20737;-70
2023/05/07 03:58:33;;;;;;;338.30;318.90;;;11.30;49.60;;;;;;5000988;28;20268;-70
2023/05/07 04:00:59;;;;;;;275.40;258.73;;;11.30;48.70;;;;;;4998835;28;20180;-71
2023/05/07 04:03:24;;;;;;;379.93;358.77;;;11.30;47.80;;;;;;5000454;28;20238;-70
2023/05/07 04:05:50;;;;;;;334.83;315.17;;;11.30;47.70;;;;;;5001104;28;20181;-69
2023/05/07 04:08:16;;;;;;;351.43;332.13;;;11.30;48.50;;;;;;4999600;28;20258;-69
2023/05/07 04:10:41;;;;;;;368.73;347.60;;;11.30;49.10;;;;;;5000409;28;20645;-69
2023/05/07 04:13:07;;;;;;;327.03;308.80;;;11.30;50.10;;;;;;5000420;28;20180;-70
2023/05/07 04:15:32;;;;;;;185.30;172.30;;;11.30;50.60;;;;;;5000359;28;20184;-69
2023/05/07 04:17:58;;;;;;;321.73;304.10;;;11.30;51.00;;;;;;5000451;28;20215;-69
2023/05/07 04:20:23;;;;;;;310.93;292.70;;;11.30;50.10;;;;;;5000120;28;20204;-69
2023/05/07 04:22:51;;;;;;;323.70;305.10;;;11.30;50.80;;;;;;5016097;28;20661;-70
2023/05/07 04:25:17;;;;;;;240.23;224.70;;;11.40;50.40;;;;;;4999417;28;20177;-70
2023/05/07 04:27:43;;;;;;;377.97;357.57;;;11.40;49.50;;;;;;4999344;28;20567;-70
2023/05/07 04:30:08;;;;;;;333.30;315.07;;;11.40;49.00;;;;;;5024930;23;20298;-72
2023/05/07 04:32:34;;;;;;;346.17;326.20;;;11.40;49.60;;;;;;5024920;28;20172;-73
2023/05/07 04:34:59;;;;;;;321.73;303.83;;;11.40;50.10;;;;;;5029048;28;20429;-72
2023/05/07 04:37:26;;;;;;;318.83;300.20;;;11.40;52.20;;;;;;5024474;28;20207;-72
2023/05/07 04:39:52;;;;;;;284.10;267.00;;;11.50;49.90;;;;;;5017264;28;20680;-72
2023/05/07 04:42:18;;;;;;;271.70;255.37;;;11.60;47.90;;;;;;5013413;28;20411;-74
2023/05/07 04:44:44;;;;;;;298.87;280.67;;;11.60;47.30;;;;;;5015422;28;20660;-72
2023/05/07 04:47:10;;;;;;;255.43;239.10;;;11.70;45.80;;;;;;5013902;28;20433;-72
2023/05/07 04:49:37;;;;;;;241.20;225.97;;;11.70;47.60;;;;;;5012803;28;20443;-72
2023/05/07 04:52:03;;;;;;;298.07;280.33;;;11.70;46.80;;;;;;5015238;28;20179;-72
2023/05/07 04:54:28;;;;;;;298.43;280.50;;;11.70;46.10;;;;;;5015315;28;20423;-72
2023/05/07 04:56:54;;;;;;;304.13;285.70;;;11.80;47.00;;;;;;5013980;28;20485;-73
2023/05/07 04:59:20;;;;;;;295.90;278.63;;;11.80;46.50;;;;;;5018355;28;20188;-72
2023/05/07 05:01:45;;;;;;;279.27;262.73;;;11.90;45.90;;;;;;5017793;28;20188;-72
2023/05/07 05:04:11;;;;;;;279.00;261.67;;;12.00;44.40;;;;;;5016938;28;20195;-72
2023/05/07 05:06:36;;;;;;;338.00;318.33;;;12.10;41.30;;;;;;5016243;28;20649;-72
2023/05/07 05:09:02;;;;;;;257.73;241.87;;;12.20;41.80;;;;;;5016942;28;20199;-72
2023/05/07 05:11:27;;;;;;;270.13;253.33;;;12.20;42.30;;;;;;5016269;28;20183;-72
2023/05/07 05:13:53;;;;;;;213.77;199.20;;;12.20;41.90;;;;;;5016355;28;20185;-72
2023/05/07 05:16:18;;;;;;;263.07;247.10;;;12.30;43.30;;;;;;5015952;28;20546;-72
2023/05/07 05:18:44;;;;;;;225.07;210.03;;;12.50;41.80;;;;;;5017023;28;20196;-75
2023/05/07 05:21:10;;;;;;;273.70;257.70;;;12.70;41.00;;;;;;5016442;28;20180;-70
2023/05/07 05:23:35;;;;;;;374.40;352.33;;;12.90;38.70;;;;;;5014354;28;20182;-71
2023/05/07 05:26:01;;;;;;;414.03;389.67;;;13.00;37.40;;;;;;5015881;28;20224;-72
2023/05/07 05:28:27;;;;;;;344.90;324.00;;;13.40;36.20;;;;;;5015978;28;20309;-71
2023/05/07 05:30:53;;;;;;;362.57;342.13;;;14.10;30.90;;;;;;5014655;28;20184;-72
2023/05/07 05:33:19;;;;;;;379.80;356.13;;;15.00;26.90;;;;;;5015543;28;20415;-72
2023/05/07 05:35:44;;;;;;;453.33;426.97;;;16.60;21.30;;;;;;5015604;28;20633;-72
2023/05/07 05:38:10;;;;;;;509.23;476.53;;;18.10;14.50;;;;;;5015672;28;20447;-72
2023/05/07 05:40:35;;;;;;;642.40;596.97;;;18.70;11.60;;;;;;5015555;28;20174;-71
2023/05/07 05:43:01;;;;;;;652.70;610.47;;;20.20;7.70;;;;;;5017566;28;20182;-73
2023/05/07 05:45:26;;;;;;;665.87;621.33;;;21.70;4.90;;;;;;5015876;28;20208;-73
2023/05/07 05:47:52;;;;;;;741.13;689.13;;;22.80;2.50;;;;;;5015592;28;20182;-72
2023/05/07 05:50:17;;;;;;;685.37;640.30;;;24.10;1.10;;;;;;5013788;28;20202;-72
2023/05/07 05:52:43;;;;;;;714.40;664.33;;;24.60;1.00;;;;;;5017273;28;20176;-72
2023/05/07 05:55:09;;;;;;;783.13;728.07;;;23.30;1.00;;;;;;5016252;28;20215;-72
2023/05/07 05:57:35;;;;;;;831.90;774.00;;;23.60;1.00;;;;;;5017678;28;20592;-72
2023/05/07 06:00:02;;;;;;;748.03;695.93;;;24.10;1.00;;;;;;5015107;28;20194;-72
2023/05/07 06:02:27;;;;;;;793.47;734.93;;;24.70;1.00;;;;;;5016981;28;20886;-72
2023/05/07 06:04:53;;;;;;;853.97;790.57;;;25.40;1.00;;;;;;5015239;28;20438;-72
2023/05/07 06:07:18;;;;;;;829.60;772.03;;;25.90;1.00;;;;;;5017018;28;20188;-72
2023/05/07 06:09:44;;;;;;;765.80;709.27;;;26.10;1.00;;;;;;5011959;28;20212;-72
2023/05/07 06:12:10;;;;;;;818.90;762.10;;;25.50;1.00;;;;;;5018121;28;20210;-72
2023/05/07 06:14:35;;;;;;;807.00;749.50;;;26.50;1.00;;;;;;5016543;28;20183;-74
2023/05/07 06:17:01;;;;;;;854.33;783.53;;;26.90;1.00;;;;;;5015497;28;20573;-72
2023/05/07 06:19:27;;;;;;;833.80;773.97;;;27.40;1.00;;;;;;5015768;28;20218;-72
2023/05/07 06:21:53;;;;;;;767.40;711.90;;;27.90;1.00;;;;;;5016820;28;20237;-72
2023/05/07 06:24:19;;;;;;;933.03;853.43;;;26.90;1.00;;;;;;5015831;28;20920;-72
2023/05/07 06:26:44;;;;;;;786.00;726.60;;;26.50;1.00;;;;;;5014462;28;20183;-72
2023/05/07 06:29:10;;;;;;;900.73;834.23;;;26.70;1.00;;;;;;5011964;28;20224;-72
2023/05/07 06:31:35;;;;;;;901.37;831.93;;;25.90;1.00;;;;;;5013945;28;20180;-73
2023/05/07 06:34:02;;;;;;;962.90;884.17;;;25.90;1.00;;;;;;5015337;28;20656;-70
2023/05/07 06:36:28;;;;;;;904.67;832.13;;;27.20;1.00;;;;;;5014332;28;20180;-69
2023/05/07 06:38:53;;;;;;;920.93;849.37;;;27.00;1.00;;;;;;5016174;28;20450;-71
2023/05/07 06:41:20;;;;;;;890.27;817.40;;;26.90;1.00;;;;;;5016583;28;20415;-71
2023/05/07 06:43:45;;;;;;;898.87;830.40;;;27.40;1.00;;;;;;5014556;28;20172;-72
2023/05/07 06:46:11;;;;;;;901.33;830.57;;;28.30;1.00;;;;;;5014333;28;20411;-72
2023/05/07 06:48:36;;;;;;;905.67;837.00;;;27.00;1.00;;;;;;5014037;28;20250;-72
2023/05/07 06:51:02;;;;;;;877.77;811.57;;;26.80;1.00;;;;;;5016624;28;20242;-72
2023/05/07 06:53:29;;;;;;;885.00;818.67;;;27.00;1.00;;;;;;5016218;28;20660;-72
2023/05/07 06:55:55;;;;;;;817.77;758.27;;;26.50;1.00;;;;;;5023202;28;20183;-72
2023/05/07 06:58:20;;;;;;;881.10;809.80;;;27.10;1.00;;;;;;5014300;28;20497;-74
2023/05/07 07:00:46;;;;;;;887.00;822.93;;;26.90;1.00;;;;;;5016728;28;20188;-71
2023/05/07 07:03:11;;;;;;;826.97;768.13;;;26.10;1.00;;;;;;5013510;28;20176;-72
2023/05/07 07:05:37;;;;;;;860.77;794.17;;;25.80;1.00;;;;;;4999766;28;20184;-71
2023/05/07 07:08:02;;;;;;;759.80;704.93;;;25.50;1.00;;;;;;4997059;28;20178;-71
2023/05/07 07:10:28;;;;;;;887.20;822.17;;;25.60;1.00;;;;;;4999068;28;20263;-73
2023/05/07 07:12:54;;;;;;;852.20;789.30;;;26.00;1.00;;;;;;5003258;28;20215;-72
2023/05/07 07:15:20;;;;;;;849.40;788.20;;;26.20;1.00;;;;;;4993121;28;20378;-72
2023/05/07 07:17:46;;;;;;;842.97;783.90;;;27.20;1.00;;;;;;4999171;28;20258;-72
2023/05/07 07:20:11;;;;;;;903.70;829.03;;;27.50;1.00;;;;;;4991951;28;20444;-73
2023/05/07 07:22:37;;;;;;;867.67;802.93;;;27.80;1.00;;;;;;4990758;28;20200;-72
2023/05/07 07:25:03;;;;;;;851.77;789.40;;;29.20;1.00;;;;;;4997976;28;20229;-73
2023/05/07 07:27:29;;;;;;;912.07;838.90;;;30.50;1.00;;;;;;5010654;28;20195;-72
2023/05/07 07:29:54;;;;;;;925.90;851.07;;;30.20;1.00;;;;;;5008130;28;20227;-72
2023/05/07 07:32:20;;;;;;;967.50;886.63;;;30.70;1.00;;;;;;5009374;28;20184;-72
2023/05/07 07:34:45;;;;;;;935.70;861.70;;;29.70;1.00;;;;;;5010093;28;20561;-71
2023/05/07 07:37:11;;;;;;;968.87;890.63;;;30.00;1.00;;;;;;5008490;28;20223;-72
2023/05/07 07:39:37;;;;;;;987.37;895.47;;;31.30;1.00;;;;;;5009078;28;20564;-73
2023/05/07 07:42:03;;;;;;;988.67;902.00;;;30.70;1.00;;;;;;5027169;28;20749;-79
2023/05/07 07:44:28;;;;;;;901.13;828.90;;;29.40;1.00;;;;;;5029059;28;20520;-73
2023/05/07 07:46:54;;;;;;;842.80;776.50;;;29.20;1.00;;;;;;5030158;28;20226;-72
2023/05/07 07:49:19;;;;;;;915.97;845.80;;;29.40;1.00;;;;;;5019685;28;20247;-73
2023/05/07 07:51:45;;;;;;;898.67;827.93;;;28.90;1.00;;;;;;5009189;28;20188;-72
2023/05/07 07:54:11;;;;;;;909.73;830.87;;;28.60;1.00;;;;;;5009525;28;20708;-72
2023/05/07 07:56:36;;;;;;;927.00;851.70;;;27.90;1.00;;;;;;5008097;28;20587;-72
2023/05/07 07:59:02;;;;;;;954.63;873.73;;;26.70;1.00;;;;;;5008022;28;20234;-72
2023/05/07 08:01:29;;;;;;;882.50;817.73;;;25.80;1.00;;;;;;5010636;28;20195;-72
2023/05/07 08:03:55;;;;;;;793.57;737.50;;;25.60;1.00;;;;;;5011354;28;20179;-72
2023/05/07 08:06:21;;;;;;;871.00;809.33;;;25.20;1.00;;;;;;5008349;28;20924;-72
2023/05/07 08:08:46;;;;;;;819.33;762.27;;;24.70;1.00;;;;;;4990141;28;20219;-72
2023/05/07 08:11:12;;;;;;;868.67;803.33;;;24.30;1.00;;;;;;4988597;28;20176;-73
2023/05/07 08:13:38;;;;;;;788.57;733.10;;;24.10;1.00;;;;;;4988786;28;20189;-72
2023/05/07 08:16:04;;;;;;;759.73;707.60;;;23.50;1.00;;;;;;5006986;28;20184;-72
2023/05/07 08:18:30;;;;;;;710.93;668.17;;;23.60;1.00;;;;;;5005487;28;20517;-71
2023/05/07 08:20:55;;;;;;;810.63;756.87;;;23.50;1.00;;;;;;5010213;28;20513;-71
2023/05/07 08:23:21;;;;;;;760.53;710.43;;;23.50;1.00;;;;;;5011981;28;20234;-71
2023/05/07 08:25:48;;;;;;;785.57;733.00;;;23.20;1.00;;;;;;5011779;28;20180;-68
2023/05/07 08:28:13;;;;;;;753.50;699.47;;;22.80;1.00;;;;;;5011697;28;20427;-69
2023/05/07 08:30:39;;;;;;;822.63;766.23;;;22.90;1.00;;;;;;5011270;28;20793;-69
2023/05/07 08:33:04;;;;;;;778.57;725.50;;;23.50;1.00;;;;;;5011612;28;20231;-69
2023/05/07 08:35:30;;;;;;;855.57;792.03;;;23.50;1.00;;;;;;5011111;28;20676;-69
2023/05/07 08:37:55;;;;;;;669.13;628.23;;;23.10;1.00;;;;;;5000077;28;20274;-70
2023/05/07 08:40:25;;;;;;;940.07;865.70;;;22.60;1.00;;;;;;5002328;28;20287;-69
2023/05/07 08:42:53;;;;;;;807.67;753.97;;;22.40;1.00;;;;;;4994378;28;20168;-69
2023/05/07 08:45:20;;;;;;;776.67;724.87;;;22.20;1.20;;;;;;5009610;28;20426;-71
2023/05/07 08:47:51;;;;;;;801.17;746.47;;;22.10;2.20;;;;;;5011932;28;20506;-70
2023/05/07 08:50:17;;;;;;;831.57;771.27;;;22.60;1.60;;;;;;5011553;28;20490;-71
2023/05/07 08:52:43;;;;;;;662.00;621.00;;;22.40;1.80;;;;;;5011462;28;20979;-70
2023/05/07 08:55:09;;;;;;;732.70;681.23;;;22.20;2.50;;;;;;5004432;28;20522;-71
2023/05/07 08:57:35;;;;;;;768.40;712.53;;;22.30;2.50;;;;;;4992112;28;20201;-71
2023/05/07 09:00:03;;;;;;;780.53;724.53;;;22.50;2.40;;;;;;4992073;28;20515;-70
2023/05/07 09:02:29;;;;;;;797.90;740.73;;;22.70;2.40;;;;;;4995362;28;20518;-70
2023/05/07 09:04:55;;;;;;;817.03;758.23;;;22.60;2.70;;;;;;5011776;28;20509;-71
2023/05/07 09:07:22;;;;;;;747.63;694.63;;;22.30;3.50;;;;;;5011717;28;20180;-71
2023/05/07 09:09:48;;;;;;;778.67;725.53;;;22.10;4.50;;;;;;5011698;28;20673;-71
2023/05/07 09:12:13;;;;;;;801.57;744.53;;;22.10;4.60;;;;;;5011597;28;20446;-71
2023/05/07 09:14:39;;;;;;;675.27;629.63;;;22.30;4.80;;;;;;5011624;28;20502;-72
2023/05/07 09:17:05;;;;;;;717.90;668.43;;;22.30;4.80;;;;;;5011457;28;20203;-71
2023/05/07 09:19:30;;;;;;;846.33;784.57;;;22.30;4.40;;;;;;5011604;28;20207;-72
2023/05/07 09:22:04;;;;;;;823.97;761.20;;;22.50;4.70;;;;;;5011431;28;20222;-72
2023/05/07 09:24:34;;;;;;;740.63;687.73;;;22.50;4.10;;;;;;5011349;28;20191;-72
2023/05/07 09:27:01;;;;;;;839.17;778.50;;;22.90;3.00;;;;;;5011562;28;20423;-71
2023/05/07 09:29:28;;;;;;;807.73;747.83;;;23.10;2.90;;;;;;5009857;28;20474;-71
2023/05/07 09:31:55;;;;;;;812.63;755.80;;;23.20;3.10;;;;;;5001989;28;20885;-72
2023/05/07 09:34:20;;;;;;;920.07;846.10;;;23.30;3.40;;;;;;4992179;28;20423;-71
2023/05/07 09:36:47;;;;;;;906.30;836.53;;;23.30;2.50;;;;;;4991949;28;21000;-70
2023/05/07 09:39:13;;;;;;;753.10;700.37;;;23.40;2.30;;;;;;5000134;28;20685;-70
2023/05/07 09:41:49;;;;;;;923.17;846.57;;;23.50;2.00;;;;;;5011406;28;20833;-70
2023/05/07 09:44:15;;;;;;;792.83;739.63;;;23.70;2.10;;;;;;5015145;28;20858;-72
2023/05/07 09:46:43;;;;;;;945.90;871.43;;;23.80;2.10;;;;;;5013829;28;20454;-72
2023/05/07 09:49:15;;;;;;;776.53;722.80;;;23.80;1.00;;;;;;5014814;28;20451;-71
2023/05/07 09:51:49;;;;;;;839.33;776.87;;;23.80;1.00;;;;;;5014679;28;20419;-72
2023/05/07 09:54:15;;;;;;;874.17;804.37;;;23.70;2.80;;;;;;5015688;28;20505;-72
2023/05/07 09:56:42;;;;;;;1039.87;948.63;;;24.00;2.20;;;;;;5013644;28;20463;-70
2023/05/07 09:59:10;;;;;;;877.00;808.87;;;24.40;1.30;;;;;;5014886;28;20485;-71
2023/05/07 10:01:37;;;;;;;915.70;846.90;;;24.40;1.30;;;;;;5014634;28;20816;-71
2023/05/07 10:04:04;;;;;;;912.73;835.87;;;24.70;1.00;;;;;;5014714;28;20422;-72
2023/05/07 10:06:30;;;;;;;922.73;854.83;;;24.60;1.00;;;;;;5014707;28;20411;-72
2023/05/07 10:08:57;;;;;;;884.40;815.13;;;24.60;1.00;;;;;;5014581;28;20450;-68
2023/05/07 10:11:23;;;;;;;839.33;772.87;;;24.70;1.00;;;;;;5014930;28;20418;-70
2023/05/07 10:13:48;;;;;;;931.37;853.67;;;24.90;1.00;;;;;;5014013;28;20427;-70
2023/05/07 10:16:14;;;;;;;882.13;815.93;;;25.10;1.00;;;;;;5014458;28;20411;-70
2023/05/07 10:18:41;;;;;;;961.90;887.07;;;25.20;1.00;;;;;;5014279;28;20346;-71
2023/05/07 10:21:23;;;;;;;826.37;766.77;;;25.50;1.00;;;;;;5014402;28;20180;-71
2023/05/07 10:23:53;;;;;;;1016.43;931.37;;;25.70;1.00;;;;;;5014036;28;20438;-71
2023/05/07 10:26:21;;;;;;;936.97;861.97;;;25.80;1.00;;;;;;5014112;28;20450;-71
2023/05/07 10:28:52;;;;;;;978.77;898.83;;;25.70;1.00;;;;;;5037235;23;20527;-71
2023/05/07 10:31:39;;;;;;;845.10;786.47;;;25.60;1.00;;;;;;5014397;28;20546;-71
2023/05/07 10:34:14;;;;;;;989.57;909.67;;;26.00;1.00;;;;;;5014434;28;20454;-69
2023/05/07 10:36:40;;;;;;;985.60;906.73;;;26.30;1.00;;;;;;5014609;28;20450;-70
2023/05/07 10:39:06;;;;;;;858.23;794.70;;;26.30;1.00;;;;;;5014005;28;20446;-70
2023/05/07 10:41:32;;;;;;;904.97;834.10;;;26.30;1.00;;;;;;5012827;28;20188;-70
2023/05/07 10:44:01;;;;;;;897.07;826.53;;;26.40;1.00;;;;;;5014079;28;20965;-69
2023/05/07 10:46:26;;;;;;;867.67;806.17;;;26.10;1.00;;;;;;5012774;28;20183;-69
2023/05/07 10:49:05;;;;;;;905.33;836.97;;;25.70;1.00;;;;;;5012699;28;20435;-70
2023/05/07 10:51:32;;;;;;;808.87;751.80;;;25.70;1.00;;;;;;5014016;28;20242;-69
2023/05/07 10:54:24;;;;;;;805.93;753.50;;;25.50;1.00;;;;;;5012846;28;20430;-68
2023/05/07 10:56:51;;;;;;;841.20;781.00;;;25.50;1.00;;;;;;5011105;28;20498;-69
2023/05/07 10:59:30;;;;;;;854.17;791.13;;;25.50;1.00;;;;;;5013711;28;20431;-70
2023/05/07 11:02:09;;;;;;;862.97;800.17;;;25.70;1.00;;;;;;5013552;28;20411;-69
2023/05/07 11:04:35;;;;;;;804.47;752.03;;;25.60;1.00;;;;;;5013800;28;20493;-70
2023/05/07 11:07:08;;;;;;;938.17;865.50;;;25.60;1.00;;;;;;5013383;28;21000;-70
2023/05/07 11:10:04;;;;;;;780.77;729.57;;;25.70;1.00;;;;;;5013689;28;20240;-69
2023/05/07 11:12:36;;;;;;;863.80;800.27;;;25.70;1.00;;;;;;4996276;28;20422;-70
2023/05/07 11:15:06;;;;;;;849.03;788.93;;;25.50;1.00;;;;;;5013516;28;20414;-70
2023/05/07 11:17:34;;;;;;;892.07;826.93;;;25.40;1.00;;;;;;5013186;28;20455;-71
2023/05/07 11:20:01;;;;;;;946.43;869.73;;;25.30;1.00;;;;;;5013317;28;20454;-70
2023/05/07 11:22:39;;;;;;;778.93;724.17;;;25.20;1.00;;;;;;5013063;28;20407;-70
2023/05/07 11:25:06;;;;;;;748.80;700.43;;;25.20;1.00;;;;;;5011308;28;20419;-70
2023/05/07 11:27:32;;;;;;;809.30;753.30;;;25.20;1.00;;;;;;5013248;28;20422;-70
2023/05/07 11:29:58;;;;;;;912.03;842.90;;;25.20;1.00;;;;;;5011721;28;20470;-70
2023/05/07 11:32:24;;;;;;;878.27;812.73;;;24.60;1.00;;;;;;5012915;28;20431;-70
2023/05/07 11:34:54;;;;;;;912.93;845.80;;;23.80;1.00;;;;;;5013354;28;20443;-70
2023/05/07 11:37:21;;;;;;;835.03;771.47;;;23.30;1.90;;;;;;5011805;28;21041;-70
2023/05/07 11:39:47;;;;;;;837.77;782.03;;;23.30;9.70;;;;;;5030733;28;20446;-70
2023/05/07 11:42:29;;;;;;;816.93;761.97;;;23.10;8.60;;;;;;5018459;28;20468;-70
2023/05/07 11:44:55;;;;;;;775.60;722.70;;;22.00;11.70;;;;;;5013016;28;20774;-70
2023/05/07 11:47:20;;;;;;;798.67;738.93;;;21.20;16.50;;;;;;5012966;28;20415;-70
2023/05/07 11:49:48;;;;;;;730.47;682.87;;;20.90;18.80;;;;;;5012312;28;20220;-70
2023/05/07 11:52:14;;;;;;;654.40;614.30;;;20.60;22.20;;;;;;5011374;28;20795;-70
2023/05/07 11:54:40;;;;;;;572.63;539.73;;;20.50;23.00;;;;;;5012867;28;20422;-69
2023/05/07 11:57:07;;;;;;;712.80;666.47;;;20.40;21.20;;;;;;5011338;28;20878;-70
2023/05/07 11:59:44;;;;;;;619.03;582.87;;;20.30;21.10;;;;;;5012615;28;20593;-70
2023/05/07 12:02:09;;;;;;;687.20;642.43;;;20.40;21.70;;;;;;5012536;28;20470;-70
2023/05/07 12:04:35;;;;;;;699.90;655.57;;;20.60;20.50;;;;;;5012734;28;20423;-70
2023/05/07 12:07:01;;;;;;;670.53;627.13;;;20.90;19.60;;;;;;5012660;28;20175;-71
2023/05/07 12:09:26;;;;;;;671.83;628.67;;;21.00;16.80;;;;;;4993166;28;20610;-70
2023/05/07 12:11:52;;;;;;;621.47;580.77;;;21.20;15.30;;;;;;4993020;28;20177;-74